sensor_id;sensor_type;location;lat;lon;timestamp;temperature;humidity
2825;DHT22;1420;51.324;12.344;2023-02-01T00:02:12;4.10;1.00
2825;DHT22;1420;51.324;12.344;2023-02-01T00:04:40;4.10;1.00
2825;DHT22;1420;51.324;12.344;2023-02-01T00:07:08;4.10;1.00
2825;DHT22;1420;51.324;12.344;2023-02-01T00:09:36;4.10;1.00
2825;DHT22;1420;51.324;12.344;2023-02-01T00:12:04;4.10;1.00
2825;DHT22;1420;51.324;12.344;2023-02-01T00:14:31;4.00;1.00
2825;DHT22;1420;51.324;12.344;2023-02-01T00:16:58;4.00;1.00
2825;DHT22;1420;51.324;12.344;2023-02-01T00:19:26;4.00;1.00
2825;DHT22;1420;51.324;12.344;2023-02-01T00:21:54;4.10;1.00
2825;DHT22;1420;51.324;12.344;2023-02-01T00:24:22;4.00;1.00
2825;DHT22;1420;51.324;12.344;2023-02-01T00:26:49;4.00;1.00
2825;DHT22;1420;51.324;12.344;2023-02-01T00:29:17;4.10;1.00
2825;DHT22;1420;51.324;12.344;2023-02-01T00:31:44;4.00;1.00
2825;DHT22;1420;51.324;12.344;2023-02-01T00:34:13;4.00;1.00
2825;DHT22;1420;51.324;12.344;2023-02-01T00:36:39;4.10;1.00
2825;DHT22;1420;51.324;12.344;2023-02-01T00:39:06;4.10;1.00
2825;DHT22;1420;51.324;12.344;2023-02-01T00:41:34;4.20;1.00
2825;DHT22;1420;51.324;12.344;2023-02-01T00:44:02;4.30;1.00
2825;DHT22;1420;51.324;12.344;2023-02-01T00:46:29;4.20;1.00
2825;DHT22;1420;51.324;12.344;2023-02-01T00:48:56;4.30;1.00
2825;DHT22;1420;51.324;12.344;2023-02-01T00:51:25;4.30;1.00
2825;DHT22;1420;51.324;12.344;2023-02-01T00:53:52;4.30;1.00
2825;DHT22;1420;51.324;12.344;2023-02-01T00:56:20;4.20;1.00
2825;DHT22;1420;51.324;12.344;2023-02-01T00:58:47;4.20;1.00
2825;DHT22;1420;51.324;12.344;2023-02-01T01:01:16;4.20;1.00
2825;DHT22;1420;51.324;12.344;2023-02-01T01:03:43;4.20;1.00
2825;DHT22;1420;51.324;12.344;2023-02-01T01:06:10;4.20;1.00
2825;DHT22;1420;51.324;12.344;2023-02-01T01:08:36;4.20;1.00
2825;DHT22;1420;51.324;12.344;2023-02-01T01:11:05;4.20;1.00
2825;DHT22;1420;51.324;12.344;2023-02-01T01:13:32;4.20;1.00
2825;DHT22;1420;51.324;12.344;2023-02-01T01:16:00;4.10;1.00
2825;DHT22;1420;51.324;12.344;2023-02-01T01:18:28;4.20;1.00
2825;DHT22;1420;51.324;12.344;2023-02-01T01:20:55;4.10;1.00
2825;DHT22;1420;51.324;12.344;2023-02-01T01:23:23;4.00;1.00
2825;DHT22;1420;51.324;12.344;2023-02-01T01:25:50;4.20;1.00
2825;DHT22;1420;51.324;12.344;2023-02-01T01:28:17;4.10;1.00
2825;DHT22;1420;51.324;12.344;2023-02-01T01:30:44;4.20;1.00
2825;DHT22;1420;51.324;12.344;2023-02-01T01:33:11;4.20;1.00
2825;DHT22;1420;51.324;12.344;2023-02-01T01:35:39;4.20;1.00
2825;DHT22;1420;51.324;12.344;2023-02-01T01:38:06;4.20;1.00
2825;DHT22;1420;51.324;12.344;2023-02-01T01:40:33;4.20;1.00
2825;DHT22;1420;51.324;12.344;2023-02-01T01:43:00;4.10;1.00
2825;DHT22;1420;51.324;12.344;2023-02-01T01:45:30;4.00;1.00
2825;DHT22;1420;51.324;12.344;2023-02-01T01:47:58;4.00;1.00
2825;DHT22;1420;51.324;12.344;2023-02-01T01:50:25;4.00;1.00
2825;DHT22;1420;51.324;12.344;2023-02-01T01:52:51;4.00;1.00
2825;DHT22;1420;51.324;12.344;2023-02-01T01:55:18;4.00;1.00
2825;DHT22;1420;51.324;12.344;2023-02-01T01:57:46;3.90;1.00
2825;DHT22;1420;51.324;12.344;2023-02-01T02:00:14;4.00;1.00
2825;DHT22;1420;51.324;12.344;2023-02-01T02:02:41;4.00;1.00
2825;DHT22;1420;51.324;12.344;2023-02-01T02:05:09;4.00;1.00
2825;DHT22;1420;51.324;12.344;2023-02-01T02:07:37;4.00;1.00
2825;DHT22;1420;51.324;12.344;2023-02-01T02:10:08;4.00;1.00
2825;DHT22;1420;51.324;12.344;2023-02-01T02:12:34;4.00;1.00
2825;DHT22;1420;51.324;12.344;2023-02-01T02:15:02;3.90;1.00
2825;DHT22;1420;51.324;12.344;2023-02-01T02:17:34;4.00;1.00
2825;DHT22;1420;51.324;12.344;2023-02-01T02:23:19;4.10;1.00
2825;DHT22;1420;51.324;12.344;2023-02-01T02:25:36;4.00;1.00
2825;DHT22;1420;51.324;12.344;2023-02-01T02:28:16;4.10;1.00
2825;DHT22;1420;51.324;12.344;2023-02-01T02:31:04;4.10;1.00
2825;DHT22;1420;51.324;12.344;2023-02-01T02:33:41;4.20;1.00
2825;DHT22;1420;51.324;12.344;2023-02-01T02:36:10;4.10;1.00
2825;DHT22;1420;51.324;12.344;2023-02-01T02:39:02;4.20;1.00
2825;DHT22;1420;51.324;12.344;2023-02-01T02:41:27;4.20;1.00
2825;DHT22;1420;51.324;12.344;2023-02-01T02:43:58;4.30;1.00
2825;DHT22;1420;51.324;12.344;2023-02-01T02:46:36;4.30;1.00
2825;DHT22;1420;51.324;12.344;2023-02-01T02:49:12;4.30;1.00
2825;DHT22;1420;51.324;12.344;2023-02-01T02:51:43;4.20;1.00
2825;DHT22;1420;51.324;12.344;2023-02-01T02:54:16;4.30;1.00
2825;DHT22;1420;51.324;12.344;2023-02-01T02:56:48;4.30;1.00
2825;DHT22;1420;51.324;12.344;2023-02-01T02:59:21;4.20;1.00
2825;DHT22;1420;51.324;12.344;2023-02-01T03:01:53;4.20;1.00
2825;DHT22;1420;51.324;12.344;2023-02-01T03:04:26;4.20;1.00
2825;DHT22;1420;51.324;12.344;2023-02-01T03:06:54;4.30;1.00
2825;DHT22;1420;51.324;12.344;2023-02-01T03:09:30;4.30;1.00
2825;DHT22;1420;51.324;12.344;2023-02-01T03:11:57;4.30;1.00
2825;DHT22;1420;51.324;12.344;2023-02-01T03:14:27;4.40;1.00
2825;DHT22;1420;51.324;12.344;2023-02-01T03:16:58;4.30;1.00
2825;DHT22;1420;51.324;12.344;2023-02-01T03:19:25;4.40;1.00
2825;DHT22;1420;51.324;12.344;2023-02-01T03:21:57;4.40;1.00
2825;DHT22;1420;51.324;12.344;2023-02-01T03:24:31;4.40;1.00
2825;DHT22;1420;51.324;12.344;2023-02-01T03:27:21;4.40;1.00
2825;DHT22;1420;51.324;12.344;2023-02-01T03:29:49;4.50;1.00
2825;DHT22;1420;51.324;12.344;2023-02-01T03:32:15;4.40;1.00
2825;DHT22;1420;51.324;12.344;2023-02-01T03:34:42;4.50;1.00
2825;DHT22;1420;51.324;12.344;2023-02-01T03:37:11;4.50;1.00
2825;DHT22;1420;51.324;12.344;2023-02-01T03:39:47;4.50;1.00
2825;DHT22;1420;51.324;12.344;2023-02-01T03:42:48;4.50;1.00
2825;DHT22;1420;51.324;12.344;2023-02-01T03:45:06;4.50;1.00
2825;DHT22;1420;51.324;12.344;2023-02-01T03:47:33;4.50;1.00
2825;DHT22;1420;51.324;12.344;2023-02-01T03:50:00;4.50;1.00
2825;DHT22;1420;51.324;12.344;2023-02-01T03:52:33;4.60;1.00
2825;DHT22;1420;51.324;12.344;2023-02-01T03:54:59;4.50;1.00
2825;DHT22;1420;51.324;12.344;2023-02-01T03:57:29;4.50;1.00
2825;DHT22;1420;51.324;12.344;2023-02-01T03:59:54;4.40;1.00
2825;DHT22;1420;51.324;12.344;2023-02-01T04:02:22;4.40;1.00
2825;DHT22;1420;51.324;12.344;2023-02-01T04:04:49;4.50;1.00
2825;DHT22;1420;51.324;12.344;2023-02-01T04:07:16;4.40;1.00
2825;DHT22;1420;51.324;12.344;2023-02-01T04:09:43;4.40;1.00
2825;DHT22;1420;51.324;12.344;2023-02-01T04:12:10;4.40;1.00
2825;DHT22;1420;51.324;12.344;2023-02-01T04:14:38;4.40;1.00
2825;DHT22;1420;51.324;12.344;2023-02-01T04:17:06;4.40;1.00
2825;DHT22;1420;51.324;12.344;2023-02-01T04:19:34;4.30;1.00
2825;DHT22;1420;51.324;12.344;2023-02-01T04:22:01;4.30;1.00
2825;DHT22;1420;51.324;12.344;2023-02-01T04:24:28;4.40;1.00
2825;DHT22;1420;51.324;12.344;2023-02-01T04:26:55;4.40;1.00
2825;DHT22;1420;51.324;12.344;2023-02-01T04:29:22;4.40;1.00
2825;DHT22;1420;51.324;12.344;2023-02-01T04:31:50;4.40;1.00
2825;DHT22;1420;51.324;12.344;2023-02-01T04:34:17;4.40;1.00
2825;DHT22;1420;51.324;12.344;2023-02-01T04:36:44;4.50;1.00
2825;DHT22;1420;51.324;12.344;2023-02-01T04:39:11;4.50;1.00
2825;DHT22;1420;51.324;12.344;2023-02-01T04:41:38;4.40;1.00
2825;DHT22;1420;51.324;12.344;2023-02-01T04:44:06;4.40;1.00
2825;DHT22;1420;51.324;12.344;2023-02-01T04:46:33;4.40;1.00
2825;DHT22;1420;51.324;12.344;2023-02-01T04:49:00;4.40;1.00
2825;DHT22;1420;51.324;12.344;2023-02-01T04:51:27;4.50;1.00
2825;DHT22;1420;51.324;12.344;2023-02-01T04:53:55;4.50;1.00
2825;DHT22;1420;51.324;12.344;2023-02-01T04:56:23;4.50;1.00
2825;DHT22;1420;51.324;12.344;2023-02-01T04:58:50;4.50;1.00
2825;DHT22;1420;51.324;12.344;2023-02-01T05:01:17;4.60;1.00
2825;DHT22;1420;51.324;12.344;2023-02-01T05:03:44;4.50;1.00
2825;DHT22;1420;51.324;12.344;2023-02-01T05:06:11;4.50;1.00
2825;DHT22;1420;51.324;12.344;2023-02-01T05:08:39;4.50;1.00
2825;DHT22;1420;51.324;12.344;2023-02-01T05:11:07;4.50;1.00
2825;DHT22;1420;51.324;12.344;2023-02-01T05:13:35;4.40;1.00
2825;DHT22;1420;51.324;12.344;2023-02-01T05:16:08;4.40;1.00
2825;DHT22;1420;51.324;12.344;2023-02-01T05:18:35;4.40;1.00
2825;DHT22;1420;51.324;12.344;2023-02-01T05:21:03;4.40;1.00
2825;DHT22;1420;51.324;12.344;2023-02-01T05:23:30;4.40;1.00
2825;DHT22;1420;51.324;12.344;2023-02-01T05:25:59;4.40;1.00
2825;DHT22;1420;51.324;12.344;2023-02-01T05:28:26;4.40;1.00
2825;DHT22;1420;51.324;12.344;2023-02-01T05:30:54;4.30;1.00
2825;DHT22;1420;51.324;12.344;2023-02-01T05:33:22;4.40;1.00
2825;DHT22;1420;51.324;12.344;2023-02-01T05:35:50;4.40;1.00
2825;DHT22;1420;51.324;12.344;2023-02-01T05:38:18;4.40;1.00
2825;DHT22;1420;51.324;12.344;2023-02-01T05:40:45;4.30;1.00
2825;DHT22;1420;51.324;12.344;2023-02-01T05:43:12;4.40;1.00
2825;DHT22;1420;51.324;12.344;2023-02-01T05:45:39;4.30;1.00
2825;DHT22;1420;51.324;12.344;2023-02-01T05:48:07;4.30;1.00
2825;DHT22;1420;51.324;12.344;2023-02-01T05:50:34;4.30;1.00
2825;DHT22;1420;51.324;12.344;2023-02-01T05:53:01;4.60;1.00
2825;DHT22;1420;51.324;12.344;2023-02-01T05:55:28;5.00;1.00
2825;DHT22;1420;51.324;12.344;2023-02-01T05:57:55;4.90;1.00
2825;DHT22;1420;51.324;12.344;2023-02-01T06:00:23;4.90;1.00
2825;DHT22;1420;51.324;12.344;2023-02-01T06:02:51;4.80;1.00
2825;DHT22;1420;51.324;12.344;2023-02-01T06:05:19;5.10;1.00
2825;DHT22;1420;51.324;12.344;2023-02-01T06:07:47;5.20;1.00
2825;DHT22;1420;51.324;12.344;2023-02-01T06:10:14;5.10;1.00
2825;DHT22;1420;51.324;12.344;2023-02-01T06:12:41;4.80;1.00
2825;DHT22;1420;51.324;12.344;2023-02-01T06:15:09;4.70;1.00
2825;DHT22;1420;51.324;12.344;2023-02-01T06:17:38;4.60;1.00
2825;DHT22;1420;51.324;12.344;2023-02-01T06:20:05;4.50;1.00
2825;DHT22;1420;51.324;12.344;2023-02-01T06:22:32;4.40;1.00
2825;DHT22;1420;51.324;12.344;2023-02-01T06:24:59;4.40;1.00
2825;DHT22;1420;51.324;12.344;2023-02-01T06:27:27;4.40;1.00
2825;DHT22;1420;51.324;12.344;2023-02-01T06:29:54;4.40;1.00
2825;DHT22;1420;51.324;12.344;2023-02-01T06:32:21;4.40;1.00
2825;DHT22;1420;51.324;12.344;2023-02-01T06:34:48;4.40;1.00
2825;DHT22;1420;51.324;12.344;2023-02-01T06:37:15;4.40;1.00
2825;DHT22;1420;51.324;12.344;2023-02-01T06:39:43;4.50;1.00
2825;DHT22;1420;51.324;12.344;2023-02-01T06:42:11;4.40;1.00
2825;DHT22;1420;51.324;12.344;2023-02-01T06:44:39;4.50;1.00
2825;DHT22;1420;51.324;12.344;2023-02-01T06:47:06;4.50;1.00
2825;DHT22;1420;51.324;12.344;2023-02-01T06:49:34;4.50;1.00
2825;DHT22;1420;51.324;12.344;2023-02-01T06:52:02;4.40;1.00
2825;DHT22;1420;51.324;12.344;2023-02-01T06:54:29;4.50;1.00
2825;DHT22;1420;51.324;12.344;2023-02-01T06:56:56;4.50;1.00
2825;DHT22;1420;51.324;12.344;2023-02-01T06:59:23;4.60;1.00
2825;DHT22;1420;51.324;12.344;2023-02-01T07:01:51;4.60;1.00
2825;DHT22;1420;51.324;12.344;2023-02-01T07:04:18;4.60;1.00
2825;DHT22;1420;51.324;12.344;2023-02-01T07:06:45;4.60;1.00
2825;DHT22;1420;51.324;12.344;2023-02-01T07:09:12;4.70;1.00
2825;DHT22;1420;51.324;12.344;2023-02-01T07:11:40;4.60;1.00
2825;DHT22;1420;51.324;12.344;2023-02-01T07:14:09;4.60;1.00
2825;DHT22;1420;51.324;12.344;2023-02-01T07:16:36;4.70;1.00
2825;DHT22;1420;51.324;12.344;2023-02-01T07:19:04;4.70;1.00
2825;DHT22;1420;51.324;12.344;2023-02-01T07:21:31;4.70;1.00
2825;DHT22;1420;51.324;12.344;2023-02-01T07:23:58;4.70;1.00
2825;DHT22;1420;51.324;12.344;2023-02-01T07:26:26;4.80;1.00
2825;DHT22;1420;51.324;12.344;2023-02-01T07:28:53;4.90;1.00
2825;DHT22;1420;51.324;12.344;2023-02-01T07:31:20;4.90;1.00
2825;DHT22;1420;51.324;12.344;2023-02-01T07:33:47;4.90;1.00
2825;DHT22;1420;51.324;12.344;2023-02-01T07:36:15;4.90;1.00
2825;DHT22;1420;51.324;12.344;2023-02-01T07:38:42;4.90;1.00
2825;DHT22;1420;51.324;12.344;2023-02-01T07:41:10;4.90;1.00
2825;DHT22;1420;51.324;12.344;2023-02-01T07:43:37;5.00;1.00
2825;DHT22;1420;51.324;12.344;2023-02-01T07:46:05;5.10;1.00
2825;DHT22;1420;51.324;12.344;2023-02-01T07:48:33;5.20;1.00
2825;DHT22;1420;51.324;12.344;2023-02-01T07:51:02;5.10;1.00
2825;DHT22;1420;51.324;12.344;2023-02-01T07:53:28;5.20;1.00
2825;DHT22;1420;51.324;12.344;2023-02-01T07:55:55;5.20;1.00
2825;DHT22;1420;51.324;12.344;2023-02-01T07:58:23;5.20;1.00
2825;DHT22;1420;51.324;12.344;2023-02-01T08:00:51;5.30;1.00
2825;DHT22;1420;51.324;12.344;2023-02-01T08:03:24;5.30;1.00
2825;DHT22;1420;51.324;12.344;2023-02-01T08:05:54;5.20;1.00
2825;DHT22;1420;51.324;12.344;2023-02-01T08:08:22;5.20;1.00
2825;DHT22;1420;51.324;12.344;2023-02-01T08:10:48;5.30;1.00
2825;DHT22;1420;51.324;12.344;2023-02-01T08:13:16;5.10;1.00
2825;DHT22;1420;51.324;12.344;2023-02-01T08:15:43;5.50;1.00
2825;DHT22;1420;51.324;12.344;2023-02-01T08:18:10;5.30;1.00
2825;DHT22;1420;51.324;12.344;2023-02-01T08:20:37;5.30;1.00
2825;DHT22;1420;51.324;12.344;2023-02-01T08:23:07;5.20;1.00
2825;DHT22;1420;51.324;12.344;2023-02-01T08:25:32;5.10;1.00
2825;DHT22;1420;51.324;12.344;2023-02-01T08:28:00;5.10;1.00
2825;DHT22;1420;51.324;12.344;2023-02-01T08:30:28;5.20;1.00
2825;DHT22;1420;51.324;12.344;2023-02-01T08:32:57;5.10;1.00
2825;DHT22;1420;51.324;12.344;2023-02-01T08:35:24;5.10;1.00
2825;DHT22;1420;51.324;12.344;2023-02-01T08:37:51;5.10;1.00
2825;DHT22;1420;51.324;12.344;2023-02-01T08:40:19;5.10;1.00
2825;DHT22;1420;51.324;12.344;2023-02-01T08:42:46;5.00;1.00
2825;DHT22;1420;51.324;12.344;2023-02-01T08:45:19;4.90;1.00
2825;DHT22;1420;51.324;12.344;2023-02-01T08:47:46;4.70;1.00
2825;DHT22;1420;51.324;12.344;2023-02-01T08:50:14;4.60;1.00
2825;DHT22;1420;51.324;12.344;2023-02-01T08:52:41;4.60;1.00
2825;DHT22;1420;51.324;12.344;2023-02-01T08:55:08;4.50;1.00
2825;DHT22;1420;51.324;12.344;2023-02-01T08:57:36;4.30;1.00
2825;DHT22;1420;51.324;12.344;2023-02-01T09:00:06;4.30;1.00
2825;DHT22;1420;51.324;12.344;2023-02-01T09:02:33;4.30;1.00
2825;DHT22;1420;51.324;12.344;2023-02-01T09:05:00;4.20;1.00
2825;DHT22;1420;51.324;12.344;2023-02-01T09:07:27;4.20;1.00
2825;DHT22;1420;51.324;12.344;2023-02-01T09:09:54;4.20;1.00
2825;DHT22;1420;51.324;12.344;2023-02-01T09:12:21;4.20;1.00
2825;DHT22;1420;51.324;12.344;2023-02-01T09:14:49;4.20;1.00
2825;DHT22;1420;51.324;12.344;2023-02-01T09:17:16;4.30;1.00
2825;DHT22;1420;51.324;12.344;2023-02-01T09:19:43;4.30;1.00
2825;DHT22;1420;51.324;12.344;2023-02-01T09:22:10;4.40;1.00
2825;DHT22;1420;51.324;12.344;2023-02-01T09:24:37;4.40;1.00
2825;DHT22;1420;51.324;12.344;2023-02-01T09:27:05;4.40;1.00
2825;DHT22;1420;51.324;12.344;2023-02-01T09:29:32;4.50;1.00
2825;DHT22;1420;51.324;12.344;2023-02-01T09:31:59;4.40;1.00
2825;DHT22;1420;51.324;12.344;2023-02-01T09:34:26;4.40;1.00
2825;DHT22;1420;51.324;12.344;2023-02-01T09:36:54;4.40;1.00
2825;DHT22;1420;51.324;12.344;2023-02-01T09:39:21;4.50;1.00
2825;DHT22;1420;51.324;12.344;2023-02-01T09:47:09;4.80;6.80
2825;DHT22;1420;51.324;12.344;2023-02-01T09:49:33;4.80;97.30
2825;DHT22;1420;51.324;12.344;2023-02-01T09:52:01;5.00;99.90
2825;DHT22;1420;51.324;12.344;2023-02-01T09:54:29;5.20;99.90
2825;DHT22;1420;51.324;12.344;2023-02-01T09:57:01;5.20;99.90
2825;DHT22;1420;51.324;12.344;2023-02-01T09:59:33;5.20;99.90
2825;DHT22;1420;51.324;12.344;2023-02-01T10:02:00;5.30;99.90
2825;DHT22;1420;51.324;12.344;2023-02-01T10:04:27;5.30;99.90
2825;DHT22;1420;51.324;12.344;2023-02-01T10:07:06;5.30;99.90
2825;DHT22;1420;51.324;12.344;2023-02-01T10:09:50;5.40;99.90
2825;DHT22;1420;51.324;12.344;2023-02-01T10:15:25;5.30;99.90
2825;DHT22;1420;51.324;12.344;2023-02-01T10:21:04;5.50;99.90
2825;DHT22;1420;51.324;12.344;2023-02-01T10:23:38;5.50;99.90
2825;DHT22;1420;51.324;12.344;2023-02-01T10:26:09;5.70;99.90
2825;DHT22;1420;51.324;12.344;2023-02-01T10:28:33;5.70;99.90
2825;DHT22;1420;51.324;12.344;2023-02-01T10:30:59;5.80;99.90
2825;DHT22;1420;51.324;12.344;2023-02-01T10:33:32;5.80;99.90
2825;DHT22;1420;51.324;12.344;2023-02-01T10:36:04;5.70;99.90
2825;DHT22;1420;51.324;12.344;2023-02-01T10:38:29;6.40;99.90
2825;DHT22;1420;51.324;12.344;2023-02-01T10:41:02;6.90;99.90
2825;DHT22;1420;51.324;12.344;2023-02-01T10:43:28;6.80;99.90
2825;DHT22;1420;51.324;12.344;2023-02-01T10:45:56;6.70;99.90
2825;DHT22;1420;51.324;12.344;2023-02-01T10:48:24;6.60;99.90
2825;DHT22;1420;51.324;12.344;2023-02-01T10:50:59;6.50;99.90
2825;DHT22;1420;51.324;12.344;2023-02-01T10:53:25;6.50;99.90
2825;DHT22;1420;51.324;12.344;2023-02-01T10:55:52;6.50;99.90
2825;DHT22;1420;51.324;12.344;2023-02-01T10:58:25;6.40;99.90
2825;DHT22;1420;51.324;12.344;2023-02-01T11:00:48;6.50;99.90
2825;DHT22;1420;51.324;12.344;2023-02-01T11:03:31;6.70;99.90
2825;DHT22;1420;51.324;12.344;2023-02-01T11:05:55;7.00;99.90
2825;DHT22;1420;51.324;12.344;2023-02-01T11:08:23;7.10;99.90
2825;DHT22;1420;51.324;12.344;2023-02-01T11:10:59;7.10;99.90
2825;DHT22;1420;51.324;12.344;2023-02-01T11:13:27;7.20;99.90
2825;DHT22;1420;51.324;12.344;2023-02-01T11:15:54;7.20;99.90
2825;DHT22;1420;51.324;12.344;2023-02-01T11:18:19;7.30;99.90
2825;DHT22;1420;51.324;12.344;2023-02-01T11:20:46;7.20;99.90
2825;DHT22;1420;51.324;12.344;2023-02-01T11:23:15;6.90;99.90
2825;DHT22;1420;51.324;12.344;2023-02-01T11:25:49;6.80;99.90
2825;DHT22;1420;51.324;12.344;2023-02-01T11:28:15;6.70;99.90
2825;DHT22;1420;51.324;12.344;2023-02-01T11:30:43;6.60;99.90
2825;DHT22;1420;51.324;12.344;2023-02-01T11:33:13;6.70;99.90
2825;DHT22;1420;51.324;12.344;2023-02-01T11:35:40;6.90;99.90
2825;DHT22;1420;51.324;12.344;2023-02-01T11:38:28;7.20;99.90
2825;DHT22;1420;51.324;12.344;2023-02-01T11:40:55;7.30;99.90
2825;DHT22;1420;51.324;12.344;2023-02-01T11:43:26;7.40;99.90
2825;DHT22;1420;51.324;12.344;2023-02-01T11:45:55;7.30;99.90
2825;DHT22;1420;51.324;12.344;2023-02-01T11:48:22;7.40;99.90
2825;DHT22;1420;51.324;12.344;2023-02-01T11:53:47;7.50;99.90
2825;DHT22;1420;51.324;12.344;2023-02-01T11:56:15;7.50;99.90
2825;DHT22;1420;51.324;12.344;2023-02-01T11:59:00;7.40;99.90
2825;DHT22;1420;51.324;12.344;2023-02-01T12:01:36;7.50;99.90
2825;DHT22;1420;51.324;12.344;2023-02-01T12:04:10;7.40;99.90
2825;DHT22;1420;51.324;12.344;2023-02-01T12:06:50;7.30;99.90
2825;DHT22;1420;51.324;12.344;2023-02-01T12:09:56;7.20;99.90
2825;DHT22;1420;51.324;12.344;2023-02-01T12:12:07;7.20;99.90
2825;DHT22;1420;51.324;12.344;2023-02-01T12:14:41;7.30;99.90
2825;DHT22;1420;51.324;12.344;2023-02-01T12:17:59;7.40;99.90
2825;DHT22;1420;51.324;12.344;2023-02-01T12:20:28;7.40;99.90
2825;DHT22;1420;51.324;12.344;2023-02-01T12:26:05;7.30;99.90
2825;DHT22;1420;51.324;12.344;2023-02-01T12:33:49;7.30;99.90
2825;DHT22;1420;51.324;12.344;2023-02-01T12:36:26;7.30;99.90
2825;DHT22;1420;51.324;12.344;2023-02-01T12:41:34;7.40;99.90
2825;DHT22;1420;51.324;12.344;2023-02-01T12:44:03;7.30;99.90
2825;DHT22;1420;51.324;12.344;2023-02-01T12:46:31;7.30;99.90
2825;DHT22;1420;51.324;12.344;2023-02-01T12:49:05;7.40;99.90
2825;DHT22;1420;51.324;12.344;2023-02-01T12:51:34;7.40;99.90
2825;DHT22;1420;51.324;12.344;2023-02-01T12:54:18;7.40;99.90
2825;DHT22;1420;51.324;12.344;2023-02-01T12:56:49;7.40;99.90
2825;DHT22;1420;51.324;12.344;2023-02-01T12:59:34;7.40;99.90
2825;DHT22;1420;51.324;12.344;2023-02-01T13:02:04;7.30;99.90
2825;DHT22;1420;51.324;12.344;2023-02-01T13:04:32;7.30;99.90
2825;DHT22;1420;51.324;12.344;2023-02-01T13:07:03;7.30;99.90
2825;DHT22;1420;51.324;12.344;2023-02-01T13:09:32;7.30;99.90
2825;DHT22;1420;51.324;12.344;2023-02-01T13:11:58;7.30;99.90
2825;DHT22;1420;51.324;12.344;2023-02-01T13:14:47;7.30;99.90
2825;DHT22;1420;51.324;12.344;2023-02-01T13:17:18;7.20;99.90
2825;DHT22;1420;51.324;12.344;2023-02-01T13:19:49;7.10;99.90
2825;DHT22;1420;51.324;12.344;2023-02-01T13:22:17;7.10;99.90
2825;DHT22;1420;51.324;12.344;2023-02-01T13:24:44;7.10;99.90
2825;DHT22;1420;51.324;12.344;2023-02-01T13:27:12;7.00;99.90
2825;DHT22;1420;51.324;12.344;2023-02-01T13:29:44;7.00;99.90
2825;DHT22;1420;51.324;12.344;2023-02-01T13:32:12;7.00;99.90
2825;DHT22;1420;51.324;12.344;2023-02-01T13:34:47;7.00;99.90
2825;DHT22;1420;51.324;12.344;2023-02-01T13:40:11;6.90;99.90
2825;DHT22;1420;51.324;12.344;2023-02-01T13:42:51;6.90;99.90
2825;DHT22;1420;51.324;12.344;2023-02-01T13:45:22;7.00;99.90
2825;DHT22;1420;51.324;12.344;2023-02-01T13:47:48;7.00;99.90
2825;DHT22;1420;51.324;12.344;2023-02-01T13:50:34;7.10;99.90
2825;DHT22;1420;51.324;12.344;2023-02-01T13:53:11;7.10;99.90
2825;DHT22;1420;51.324;12.344;2023-02-01T13:55:33;7.10;99.90
2825;DHT22;1420;51.324;12.344;2023-02-01T13:58:03;7.20;99.90
2825;DHT22;1420;51.324;12.344;2023-02-01T14:00:31;7.10;99.90
2825;DHT22;1420;51.324;12.344;2023-02-01T14:03:15;7.20;99.90
2825;DHT22;1420;51.324;12.344;2023-02-01T14:05:57;7.10;99.90
2825;DHT22;1420;51.324;12.344;2023-02-01T14:08:36;7.10;99.90
2825;DHT22;1420;51.324;12.344;2023-02-01T14:11:02;7.10;99.90
2825;DHT22;1420;51.324;12.344;2023-02-01T14:13:32;7.10;99.90
2825;DHT22;1420;51.324;12.344;2023-02-01T14:16:16;7.00;99.90
2825;DHT22;1420;51.324;12.344;2023-02-01T14:18:49;7.00;99.90
2825;DHT22;1420;51.324;12.344;2023-02-01T14:21:33;7.00;99.90
2825;DHT22;1420;51.324;12.344;2023-02-01T14:24:04;6.80;99.90
2825;DHT22;1420;51.324;12.344;2023-02-01T14:26:46;6.90;99.90
2825;DHT22;1420;51.324;12.344;2023-02-01T14:29:31;6.90;99.90
2825;DHT22;1420;51.324;12.344;2023-02-01T14:32:19;7.00;99.90
2825;DHT22;1420;51.324;12.344;2023-02-01T14:34:50;7.00;99.90
2825;DHT22;1420;51.324;12.344;2023-02-01T14:37:28;7.00;99.90
2825;DHT22;1420;51.324;12.344;2023-02-01T14:40:03;6.90;99.90
2825;DHT22;1420;51.324;12.344;2023-02-01T14:42:49;7.00;99.90
2825;DHT22;1420;51.324;12.344;2023-02-01T14:45:49;7.00;99.90
2825;DHT22;1420;51.324;12.344;2023-02-01T14:48:45;7.00;99.90
2825;DHT22;1420;51.324;12.344;2023-02-01T14:51:13;6.90;99.90
2825;DHT22;1420;51.324;12.344;2023-02-01T14:53:39;6.90;99.90
2825;DHT22;1420;51.324;12.344;2023-02-01T14:56:07;6.90;99.90
2825;DHT22;1420;51.324;12.344;2023-02-01T14:58:38;6.80;99.90
2825;DHT22;1420;51.324;12.344;2023-02-01T15:01:05;6.70;99.90
2825;DHT22;1420;51.324;12.344;2023-02-01T15:06:19;6.70;99.90
2825;DHT22;1420;51.324;12.344;2023-02-01T15:08:42;6.60;99.90
2825;DHT22;1420;51.324;12.344;2023-02-01T15:11:12;6.60;99.90
2825;DHT22;1420;51.324;12.344;2023-02-01T15:13:37;6.50;99.90
2825;DHT22;1420;51.324;12.344;2023-02-01T15:16:05;6.50;99.90
2825;DHT22;1420;51.324;12.344;2023-02-01T15:18:32;6.30;99.90
2825;DHT22;1420;51.324;12.344;2023-02-01T15:20:59;6.20;99.90
2825;DHT22;1420;51.324;12.344;2023-02-01T15:23:26;6.10;99.90
2825;DHT22;1420;51.324;12.344;2023-02-01T15:25:53;6.10;99.90
2825;DHT22;1420;51.324;12.344;2023-02-01T15:28:20;6.10;99.90
2825;DHT22;1420;51.324;12.344;2023-02-01T15:31:00;6.00;99.90
2825;DHT22;1420;51.324;12.344;2023-02-01T15:33:28;6.00;99.90
2825;DHT22;1420;51.324;12.344;2023-02-01T15:36:06;6.00;99.90
2825;DHT22;1420;51.324;12.344;2023-02-01T15:38:34;6.00;99.90
2825;DHT22;1420;51.324;12.344;2023-02-01T15:41:18;5.90;99.90
2825;DHT22;1420;51.324;12.344;2023-02-01T15:43:50;5.80;99.90
2825;DHT22;1420;51.324;12.344;2023-02-01T15:46:15;5.90;99.90
2825;DHT22;1420;51.324;12.344;2023-02-01T15:48:53;5.90;99.90
2825;DHT22;1420;51.324;12.344;2023-02-01T15:51:13;5.90;99.90
2825;DHT22;1420;51.324;12.344;2023-02-01T15:53:43;5.80;99.90
2825;DHT22;1420;51.324;12.344;2023-02-01T15:56:08;6.00;99.90
2825;DHT22;1420;51.324;12.344;2023-02-01T15:58:36;6.00;99.90
2825;DHT22;1420;51.324;12.344;2023-02-01T16:01:04;5.80;99.90
2825;DHT22;1420;51.324;12.344;2023-02-01T16:03:43;5.80;99.90
2825;DHT22;1420;51.324;12.344;2023-02-01T16:06:12;5.70;99.90
2825;DHT22;1420;51.324;12.344;2023-02-01T16:08:54;4.70;99.90
2825;DHT22;1420;51.324;12.344;2023-02-01T16:11:22;3.50;99.90
2825;DHT22;1420;51.324;12.344;2023-02-01T16:13:48;3.00;99.90
2825;DHT22;1420;51.324;12.344;2023-02-01T16:16:15;2.70;99.90
2825;DHT22;1420;51.324;12.344;2023-02-01T16:18:43;2.60;99.90
2825;DHT22;1420;51.324;12.344;2023-02-01T16:21:11;2.60;99.90
2825;DHT22;1420;51.324;12.344;2023-02-01T16:23:38;2.50;99.90
2825;DHT22;1420;51.324;12.344;2023-02-01T16:26:05;2.50;99.90
2825;DHT22;1420;51.324;12.344;2023-02-01T16:28:33;2.50;99.90
2825;DHT22;1420;51.324;12.344;2023-02-01T16:31:01;2.50;99.90
2825;DHT22;1420;51.324;12.344;2023-02-01T16:33:29;2.50;99.90
2825;DHT22;1420;51.324;12.344;2023-02-01T16:35:56;2.60;99.90
2825;DHT22;1420;51.324;12.344;2023-02-01T16:38:24;2.50;99.90
2825;DHT22;1420;51.324;12.344;2023-02-01T16:40:51;2.70;99.90
2825;DHT22;1420;51.324;12.344;2023-02-01T16:43:19;2.70;99.90
2825;DHT22;1420;51.324;12.344;2023-02-01T16:45:47;2.60;99.90
2825;DHT22;1420;51.324;12.344;2023-02-01T16:48:17;2.60;99.90
2825;DHT22;1420;51.324;12.344;2023-02-01T16:50:50;2.60;99.90
2825;DHT22;1420;51.324;12.344;2023-02-01T16:53:20;2.60;99.90
2825;DHT22;1420;51.324;12.344;2023-02-01T16:55:48;2.60;99.90
2825;DHT22;1420;51.324;12.344;2023-02-01T16:58:16;2.60;99.90
2825;DHT22;1420;51.324;12.344;2023-02-01T17:00:44;2.70;99.90
2825;DHT22;1420;51.324;12.344;2023-02-01T17:03:11;2.60;99.90